Time;durP1;ratioP1;P1;durP2;ratioP2;P2;SDS_P1;SDS_P2;PMS_P1;PMS_P2;Temp;Humidity;BMP_temperature;BMP_pressure;BME280_temperature;BME280_humidity;BME280_pressure;Samples;Min_cycle;Max_cycle;Signal;HPM_P1;HPM_P2
2022/09/20 00:03:55;;;;;;;22.23;7.82;;;;;;;11.07;69.51;101132.69;5066328;27;20408;-50
2022/09/20 00:06:25;;;;;;;20.73;8.52;;;;;;;11.05;70.45;101130.94;5055240;28;20052;-50
2022/09/20 00:08:52;;;;;;;18.88;7.57;;;;;;;11.04;69.95;101136.09;5047427;28;20053;-49
2022/09/20 00:11:22;;;;;;;20.50;7.32;;;;;;;11.04;69.52;101136.97;5051815;28;20044;-48
2022/09/20 00:13:51;;;;;;;21.60;8.10;;;;;;;11.03;69.64;101137.84;5058910;28;20067;-51
2022/09/20 00:16:23;;;;;;;19.48;7.70;;;;;;;11.02;70.38;101130.91;5054945;27;20084;-49
2022/09/20 00:18:54;;;;;;;20.50;7.72;;;;;;;11.02;70.27;101136.06;5055097;28;20106;-50
2022/09/20 00:21:25;;;;;;;20.67;7.95;;;;;;;11.03;70.41;101136.97;5054700;28;20511;-45
2022/09/20 00:23:56;;;;;;;17.55;7.13;;;;;;;11.02;70.13;101135.22;5056105;28;20128;-49
2022/09/20 00:26:26;;;;;;;21.33;8.10;;;;;;;11.02;70.26;101136.06;5055461;28;20045;-49
2022/09/20 00:28:56;;;;;;;23.98;9.32;;;;;;;11.02;70.24;101138.66;5057109;28;20055;-47
2022/09/20 00:31:25;;;;;;;22.58;8.63;;;;;;;11.01;71.11;101141.28;5065804;28;20061;-51
2022/09/20 00:36:43;;;;;;;20.83;8.25;;;;;;;10.99;71.30;101143.84;5042325;28;20060;-45
2022/09/20 00:39:13;;;;;;;23.92;8.95;;;;;;;11.00;70.32;101142.97;5058645;28;20094;-45
2022/09/20 00:41:41;;;;;;;22.75;8.90;;;;;;;10.99;71.23;101140.38;5061545;28;20077;-50
2022/09/20 00:44:46;;;;;;;23.58;8.73;;;;;;;10.94;71.35;101142.88;5073297;28;20044;-48
2022/09/20 00:47:23;;;;;;;24.90;8.70;;;;;;;10.97;71.14;101142.94;5054837;28;20048;-48
2022/09/20 00:49:51;;;;;;;;;;;;;;;10.82;70.96;101142.72;5052469;28;20049;-48
2022/09/20 00:52:18;;;;;;;23.30;8.75;;;;;;;10.92;70.60;101149.78;5050558;28;20438;-49
2022/09/20 00:54:45;;;;;;;22.13;10.38;;;;;;;10.92;71.13;101149.78;5051992;28;20478;-50
2022/09/20 00:57:12;;;;;;;20.92;8.35;;;;;;;10.92;70.50;101144.59;5052889;28;20043;-50
2022/09/20 00:59:43;;;;;;;23.00;9.05;;;;;;;10.92;71.45;101144.59;5051706;28;20049;-44
2022/09/20 01:02:15;;;;;;;23.80;9.00;;;;;;;10.91;71.12;101154.09;5053402;28;20464;-50
2022/09/20 01:04:43;;;;;;;16.70;7.40;;;;;;;10.86;71.26;101155.75;5051997;28;20059;-50
2022/09/20 01:07:14;;;;;;;19.00;7.88;;;;;;;10.78;70.62;101160.81;5049299;28;20044;-48
2022/09/20 01:09:41;;;;;;;16.42;6.28;;;;;;;10.72;70.61;101158.16;5052235;28;20131;-50
2022/09/20 01:12:13;;;;;;;14.98;6.18;;;;;;;10.68;70.42;101161.56;5051883;28;20098;-52
2022/09/20 01:14:42;;;;;;;16.08;7.38;;;;;;;10.65;70.71;101151.13;5041134;28;20490;-51
2022/09/20 01:17:10;;;;;;;16.77;7.50;;;;;;;10.62;71.16;101157.16;5038326;28;20041;-50
2022/09/20 01:22:26;;;;;;;20.05;8.98;;;;;;;10.64;70.59;101154.59;5038146;28;20399;-46
2022/09/20 01:30:18;;;;;;;24.38;9.20;;;;;;;10.70;70.60;101152.06;5081938;27;20406;-49
2022/09/20 01:33:11;;;;;;;22.83;8.93;;;;;;;10.66;71.25;101158.06;5038245;28;20045;-43
2022/09/20 01:35:40;;;;;;;23.42;9.80;;;;;;;10.73;71.31;101148.66;5036784;28;20072;-49
2022/09/20 01:38:47;;;;;;;24.95;8.73;;;;;;;10.68;71.74;101146.00;5042012;28;20559;-45
2022/09/20 01:41:23;;;;;;;22.38;8.43;;;;;;;10.73;71.82;101143.47;5025116;28;20069;-48
2022/09/20 01:46:53;;;;;;;25.88;10.63;;;;;;;10.71;71.64;101138.25;5029023;27;20406;-46
2022/09/20 01:49:58;;;;;;;27.52;10.95;;;;;;;10.66;72.02;101139.91;5036957;28;20033;-47
2022/09/20 01:52:59;;;;;;;22.90;10.57;;;;;;;10.63;71.29;101132.09;5033441;28;20152;-50
2022/09/20 02:15:55;;;;;;;27.30;10.30;;;;;;;10.76;72.49;101139.22;5015091;28;20906;-49
2022/09/20 02:19:00;;;;;;;27.08;9.65;;;;;;;10.73;73.14;101144.34;4989945;28;20070;-53
2022/09/20 02:21:38;;;;;;;29.33;9.75;;;;;;;10.78;72.17;101140.09;5001771;28;20145;-51
2022/09/20 02:24:36;;;;;;;28.30;10.15;;;;;;;10.80;72.58;101145.28;4995059;28;20097;-50
2022/09/20 02:27:29;;;;;;;26.55;9.95;;;;;;;10.83;72.75;101139.28;4992819;28;20055;-51
2022/09/20 02:35:29;;;;;;;22.55;11.45;;;;;;;10.95;73.05;101134.28;5053500;28;20408;-48
2022/09/20 02:43:25;;;;;;;19.65;8.15;;;;;;;11.00;72.02;101132.59;5016586;27;20426;-48
2022/09/20 02:48:37;;;;;;;24.27;8.73;;;;;;;11.04;71.93;101129.19;5060642;27;20396;-51
2022/09/20 02:51:19;;;;;;;23.45;9.60;;;;;;;11.04;72.73;101124.03;5036385;28;20616;-49
2022/09/20 03:02:30;;;;;;;29.90;11.63;;;;;;;11.40;73.12;101127.03;5051204;28;20421;-50
2022/09/20 03:08:16;;;;;;;18.90;7.25;;;;;;;11.18;73.20;101125.94;5045376;28;20405;-46
2022/09/20 03:16:56;;;;;;;16.27;7.95;;;;;;;11.16;72.54;101117.25;5059395;28;20395;-47
2022/09/20 03:39:38;;;;;;;15.63;6.47;;;;;;;11.30;73.40;101110.50;5040186;27;20893;-45
2022/09/20 03:56:38;;;;;;;19.50;8.43;;;;;;;11.32;73.39;101106.19;5054217;27;20787;-46
2022/09/20 03:59:36;;;;;;;18.55;7.60;;;;;;;11.34;72.75;101102.75;5010099;28;20140;-44
2022/09/20 04:02:23;;;;;;;17.02;6.97;;;;;;;11.36;72.61;101103.63;5015092;28;20111;-46
2022/09/20 04:10:50;;;;;;;17.55;6.70;;;;;;;11.40;72.89;101105.41;5060900;27;20403;-46
2022/09/20 04:13:34;;;;;;;16.35;7.30;;;;;;;11.37;72.88;101101.06;5025170;28;20553;-45
2022/09/20 04:19:03;;;;;;;18.67;6.88;;;;;;;11.37;73.02;101101.06;5048244;27;20404;-45
2022/09/20 04:24:20;;;;;;;17.50;9.00;;;;;;;11.42;72.95;101098.53;5037490;27;20394;-50
2022/09/20 04:26:51;;;;;;;17.77;8.95;;;;;;;11.42;72.43;101098.53;5015884;28;20129;-46
2022/09/20 04:29:31;;;;;;;16.25;8.27;;;;;;;11.41;73.05;101091.56;5003505;28;20076;-47
2022/09/20 04:32:27;;;;;;;16.58;8.90;;;;;;;11.38;73.29;101094.16;5019746;28;20783;-50
2022/09/20 04:37:38;;;;;;;16.17;6.57;;;;;;;11.43;72.61;101092.47;5025106;28;20406;-47
2022/09/20 04:43:36;;;;;;;17.77;7.20;;;;;;;11.41;73.21;101091.56;5050605;27;20405;-48
2022/09/20 05:00:23;;;;;;;14.73;6.40;;;;;;;11.48;73.21;101085.59;5028100;28;20949;-45
2022/09/20 05:14:28;;;;;;;12.45;5.80;;;;;;;11.37;72.68;101092.41;5015213;28;20755;-49
2022/09/20 05:17:40;;;;;;;13.95;6.20;;;;;;;11.32;72.60;101082.00;5004722;28;20052;-50
2022/09/20 05:23:24;;;;;;;13.68;6.45;;;;;;;11.27;72.63;101084.53;5056399;28;20926;-48
2022/09/20 05:29:08;;;;;;;14.27;7.43;;;;;;;11.24;72.48;101081.91;5113450;27;20425;-49
2022/09/20 05:31:51;;;;;;;16.00;5.85;;;;;;;11.22;72.27;101096.59;5077747;28;20482;-49
2022/09/20 05:34:43;;;;;;;16.80;7.43;;;;;;;11.18;72.69;101100.84;5075772;28;20051;-47
2022/09/20 05:40:05;;;;;;;19.08;9.25;;;;;;;11.59;71.85;101103.91;5022333;28;20418;-46
2022/09/20 05:42:41;;;;;;;15.80;6.63;;;;;;;11.35;73.14;101102.75;5022324;28;20501;-50
2022/09/20 05:45:39;;;;;;;14.35;6.50;;;;;;;11.24;73.30;101106.94;5016695;28;20137;-46
2022/09/20 05:48:16;;;;;;;15.18;6.95;;;;;;;11.25;72.90;101106.97;5041876;28;20048;-46
2022/09/20 06:09:56;;;;;;;14.27;6.97;;;;;;;11.17;72.83;101127.63;5050532;27;20402;-51
2022/09/20 06:13:03;;;;;;;15.68;7.53;;;;;;;11.18;73.20;101141.50;5049699;28;20069;-49
2022/09/20 06:23:27;;;;;;;14.57;6.80;;;;;;;11.28;73.70;101150.25;5027256;28;20427;-50
2022/09/20 06:28:34;;;;;;;16.67;8.05;;;;;;;11.36;73.14;101155.50;5078469;28;20434;-45
2022/09/20 06:31:04;;;;;;;15.38;8.18;;;;;;;11.40;72.41;101152.09;5014676;28;20050;-46
2022/09/20 06:33:32;;;;;;;14.90;7.88;;;;;;;11.43;73.02;101147.84;5013678;28;20096;-47
2022/09/20 06:42:32;;;;;;;16.77;9.00;;;;;;;11.62;72.79;101160.13;5014769;28;20485;-47
2022/09/20 06:44:59;;;;;;;19.00;9.70;;;;;;;11.66;72.94;101156.72;5053417;28;20136;-50
2022/09/20 06:47:25;;;;;;;18.92;9.95;;;;;;;11.73;73.42;101150.75;5019988;28;20049;-49
2022/09/20 06:49:52;;;;;;;20.65;9.88;;;;;;;11.80;73.59;101152.53;5016945;28;20317;-50
2022/09/20 06:52:21;;;;;;;22.80;10.07;;;;;;;11.88;73.83;101162.09;5020086;28;20071;-50
2022/09/20 06:54:52;;;;;;;18.80;8.93;;;;;;;11.94;73.65;101159.59;5020418;28;20069;-48
2022/09/20 06:57:37;;;;;;;21.50;8.90;;;;;;;11.96;73.72;101152.69;5018342;28;20519;-48
2022/09/20 07:00:05;;;;;;;17.55;8.45;;;;;;;12.06;73.59;101154.53;5023145;28;20705;-49
2022/09/20 07:02:32;;;;;;;20.13;9.60;;;;;;;12.12;73.55;101152.88;5023419;28;20131;-49
2022/09/20 07:04:59;;;;;;;20.33;10.82;;;;;;;12.20;72.99;101143.41;5020308;28;20084;-49
2022/09/20 07:07:25;;;;;;;25.10;9.20;;;;;;;12.28;73.01;101149.53;5037903;28;20560;-49
2022/09/20 07:09:52;;;;;;;20.92;9.55;;;;;;;12.36;73.08;101146.13;5034548;28;20049;-49
2022/09/20 07:12:20;;;;;;;23.60;10.15;;;;;;;12.42;73.89;101154.81;5041987;28;20143;-50
2022/09/20 07:14:46;;;;;;;20.52;9.52;;;;;;;12.48;73.34;101146.22;5039785;28;20121;-49
2022/09/20 07:17:13;;;;;;;19.77;9.48;;;;;;;12.58;74.20;101158.41;5038227;28;20072;-50
2022/09/20 07:19:40;;;;;;;21.33;9.65;;;;;;;12.66;74.75;101152.41;5040848;28;20132;-49
2022/09/20 07:22:06;;;;;;;23.60;9.93;;;;;;;12.76;73.53;101153.31;5040470;28;20103;-46
2022/09/20 07:24:33;;;;;;;23.58;9.82;;;;;;;12.83;73.95;101158.56;5040725;28;20132;-45
2022/09/20 07:27:03;;;;;;;20.23;8.10;;;;;;;12.93;73.84;101153.38;5037275;28;20680;-51
2022/09/20 07:29:30;;;;;;;20.02;9.50;;;;;;;13.00;73.38;101160.38;5035563;28;20069;-54
2022/09/20 07:31:57;;;;;;;18.55;9.45;;;;;;;13.06;74.28;101154.31;5039835;28;20076;-45
2022/09/20 07:34:24;;;;;;;20.55;8.68;;;;;;;13.13;74.43;101157.84;5039475;28;20107;-51
2022/09/20 07:36:51;;;;;;;17.20;9.27;;;;;;;13.19;74.82;101155.25;5038228;28;20049;-53
2022/09/20 07:39:17;;;;;;;17.73;8.30;;;;;;;13.27;74.53;101163.97;5032970;28;20045;-48
2022/09/20 07:41:47;;;;;;;19.17;8.93;;;;;;;13.35;74.04;101162.25;5014362;28;20140;-50
2022/09/20 07:44:29;;;;;;;20.65;10.07;;;;;;;13.44;74.66;101165.78;5029175;28;20057;-48
2022/09/20 07:46:58;;;;;;;20.77;9.23;;;;;;;13.52;73.64;101164.09;5027893;28;20132;-50
2022/09/20 07:49:27;;;;;;;18.25;9.20;;;;;;;13.61;74.24;101168.44;5012089;28;20076;-51
2022/09/20 07:51:54;;;;;;;21.50;10.30;;;;;;;13.69;74.46;101171.06;5022434;28;20153;-47
2022/09/20 07:54:20;;;;;;;20.05;8.85;;;;;;;13.74;74.34;101164.13;5026546;28;20088;-49
2022/09/20 07:56:47;;;;;;;18.30;9.73;;;;;;;13.80;73.68;101169.34;5024795;28;20484;-47
2022/09/20 07:59:14;;;;;;;22.38;9.00;;;;;;;13.86;74.08;101171.97;5024353;28;20041;-50
2022/09/20 08:01:41;;;;;;;18.77;10.05;;;;;;;13.94;73.70;101169.38;5040346;28;20083;-48
2022/09/20 08:04:09;;;;;;;17.05;9.00;;;;;;;14.02;74.38;101185.03;5021066;28;20567;-48
2022/09/20 08:06:39;;;;;;;16.92;9.55;;;;;;;14.11;73.59;101178.94;5010774;28;20078;-46
2022/09/20 08:09:07;;;;;;;17.55;8.82;;;;;;;14.23;73.57;101178.09;5025228;28;20065;-50
2022/09/20 08:11:38;;;;;;;20.60;9.50;;;;;;;14.35;74.03;101183.28;5026536;28;20057;-48
2022/09/20 08:14:06;;;;;;;18.98;9.48;;;;;;;14.50;74.31;101191.97;5009515;28;20053;-46
2022/09/20 08:16:38;;;;;;;18.48;9.02;;;;;;;14.67;73.81;101189.34;5024221;28;20053;-45
2022/09/20 08:19:06;;;;;;;20.10;9.57;;;;;;;14.81;73.83;101193.69;5025231;28;20042;-50
2022/09/20 08:21:34;;;;;;;16.85;8.98;;;;;;;15.00;73.77;101186.72;5025842;28;20739;-50
2022/09/20 08:24:02;;;;;;;16.85;8.90;;;;;;;15.27;74.01;101190.09;5012133;28;20107;-49
2022/09/20 08:26:30;;;;;;;15.27;7.68;;;;;;;15.61;72.68;101192.56;5026617;28;20057;-47
2022/09/20 08:28:58;;;;;;;14.63;8.45;;;;;;;15.96;72.90;101189.75;5026962;28;20057;-51
2022/09/20 08:31:30;;;;;;;16.50;8.40;;;;;;;16.34;72.21;101193.81;5025951;28;20170;-45
2022/09/20 08:33:58;;;;;;;14.50;6.15;;;;;;;16.87;72.06;101200.28;5026305;28;20461;-47
2022/09/20 08:36:25;;;;;;;14.10;7.45;;;;;;;17.44;71.72;101190.94;5021333;28;20053;-49
2022/09/20 08:38:52;;;;;;;14.02;7.03;;;;;;;17.83;70.10;101206.13;5027358;28;20085;-49
2022/09/20 08:41:45;;;;;;;13.48;6.65;;;;;;;18.27;69.34;101202.88;5011790;28;20049;-45
2022/09/20 08:47:03;;;;;;;12.00;5.47;;;;;;;18.63;67.59;101205.75;5058962;28;20397;-48
2022/09/20 08:49:30;;;;;;;14.52;5.15;;;;;;;18.59;66.42;101211.94;5014637;28;20497;-48
2022/09/20 08:52:02;;;;;;;12.43;5.72;;;;;;;18.57;67.17;101214.59;5001505;28;20137;-47
2022/09/20 08:54:32;;;;;;;10.00;4.82;;;;;;;18.65;66.42;101219.72;5013492;28;20056;-53
2022/09/20 08:57:09;;;;;;;12.50;5.07;;;;;;;18.70;66.08;101222.25;5015015;28;20042;-50
2022/09/20 08:59:36;;;;;;;9.85;4.85;;;;;;;18.83;66.50;101222.88;4995481;28;20048;-47
2022/09/20 09:02:08;;;;;;;10.45;5.20;;;;;;;19.17;66.28;101217.03;5007649;28;20140;-51
2022/09/20 09:04:35;;;;;;;9.50;5.05;;;;;;;19.42;64.84;101213.03;5013650;28;20060;-49
2022/09/20 09:07:03;;;;;;;12.35;4.93;;;;;;;19.72;64.54;101214.13;5013336;28;20797;-47
2022/09/20 09:09:35;;;;;;;9.13;4.65;;;;;;;19.87;62.80;101218.19;5019883;28;20779;-50
2022/09/20 09:12:04;;;;;;;10.35;4.75;;;;;;;19.91;62.75;101224.22;5019789;28;20049;-46
2022/09/20 09:17:23;;;;;;;8.90;4.32;;;;;;;20.09;62.29;101214.22;4994834;28;20050;-49
2022/09/20 09:19:55;;;;;;;10.07;4.72;;;;;;;20.31;61.95;101221.56;5017324;28;20048;-51
2022/09/20 09:22:31;;;;;;;9.65;4.35;;;;;;;20.58;61.35;101224.38;5016144;28;20525;-49
2022/09/20 09:30:36;;;;;;;7.97;4.15;;;;;;;21.35;58.53;101220.56;5095315;27;20403;-50
2022/09/20 09:38:38;;;;;;;8.02;4.90;;;;;;;21.06;58.36;101216.13;5060744;28;20383;-50
2022/09/20 09:41:24;;;;;;;8.10;4.90;;;;;;;20.94;57.98;101216.47;5023254;27;20045;-50
2022/09/20 09:46:39;;;;;;;9.32;4.20;;;;;;;20.64;58.79;101218.97;5078414;27;20409;-49
2022/09/20 09:49:25;;;;;;;9.10;4.45;;;;;;;20.58;58.96;101219.13;5064187;28;20132;-51
2022/09/20 09:54:37;;;;;;;8.18;4.25;;;;;;;20.62;59.19;101218.13;5055213;28;20383;-45
2022/09/20 10:00:10;;;;;;;7.75;4.90;;;;;;;20.79;58.32;101215.94;5119816;27;20403;-49
2022/09/20 10:11:16;;;;;;;6.07;2.88;;;;;;;21.51;57.67;101216.56;5027165;28;20757;-53
2022/09/20 10:22:17;;;;;;;6.43;2.95;;;;;;;22.81;54.50;101226.53;5034029;28;20399;-48
2022/09/20 10:27:56;;;;;;;4.47;2.75;;;;;;;23.07;52.59;101215.94;5090096;27;20389;-50
2022/09/20 10:30:30;;;;;;;5.63;2.67;;;;;;;23.13;52.50;101220.13;5032945;28;20085;-47
2022/09/20 10:47:19;;;;;;;5.38;1.70;;;;;;;22.39;51.12;101219.16;5029539;28;20953;-48
2022/09/20 10:50:14;;;;;;;6.75;2.75;;;;;;;22.29;50.82;101223.88;5008138;28;20066;-45
2022/09/20 10:53:08;;;;;;;5.68;2.63;;;;;;;22.13;51.04;101215.59;5007364;28;20101;-48
2022/09/20 10:56:14;;;;;;;5.55;3.05;;;;;;;21.94;51.29;101219.69;4999722;28;20751;-49
2022/09/20 11:09:31;;;;;;;4.90;2.40;;;;;;;21.87;51.03;101217.28;5040355;28;21054;-51
2022/09/20 11:12:11;;;;;;;6.20;3.63;;;;;;;21.86;50.15;101221.72;5023191;28;20136;-50
2022/09/20 11:14:49;;;;;;;6.85;2.85;;;;;;;21.86;50.05;101215.56;5022708;28;20103;-47
2022/09/20 11:17:25;;;;;;;7.10;3.22;;;;;;;21.91;50.54;101213.63;5023045;28;20056;-53
2022/09/20 11:20:30;;;;;;;3.78;2.30;;;;;;;21.91;50.06;101216.28;5020168;28;21028;-48
2022/09/20 11:25:47;;;;;;;5.50;2.83;;;;;;;21.82;49.68;101205.09;5041556;27;20422;-50
2022/09/20 11:28:43;;;;;;;4.18;2.30;;;;;;;21.72;49.51;101211.56;5030428;28;20111;-47
2022/09/20 11:33:55;;;;;;;6.32;2.92;;;;;;;21.86;50.10;101205.00;5029589;28;20816;-51
2022/09/20 11:36:33;;;;;;;6.93;3.92;;;;;;;21.96;49.97;101217.84;4995742;28;20046;-46
2022/09/20 11:41:36;;;;;;;5.70;2.65;;;;;;;22.11;49.43;101212.13;5000768;27;20428;-49
2022/09/20 11:44:08;;;;;;;4.82;2.00;;;;;;;22.13;48.86;101211.19;4996242;28;20056;-52
2022/09/20 11:46:41;;;;;;;5.13;2.20;;;;;;;22.11;49.00;101218.28;4998639;28;20077;-53
2022/09/20 11:49:17;;;;;;;4.47;2.08;;;;;;;22.10;48.36;101211.28;4992576;28;20077;-53
2022/09/20 11:57:14;;;;;;;4.35;2.38;;;;;;;22.34;48.43;101201.69;5074472;28;20403;-50
2022/09/20 11:59:49;;;;;;;4.50;2.17;;;;;;;22.44;48.83;101204.00;5039655;28;20047;-52
2022/09/20 12:02:28;;;;;;;6.55;2.75;;;;;;;22.46;47.77;101200.41;5040871;28;20128;-51
2022/09/20 12:04:56;;;;;;;5.10;2.33;;;;;;;22.47;47.86;101195.97;5056065;28;20041;-51
2022/09/20 12:07:42;;;;;;;3.80;2.20;;;;;;;22.47;47.87;101202.09;5050010;28;20079;-53
2022/09/20 12:10:27;;;;;;;4.78;2.00;;;;;;;22.43;47.65;101199.66;5025222;28;20136;-53
2022/09/20 12:12:58;;;;;;;6.82;2.25;;;;;;;22.42;48.03;101204.06;5027422;28;20056;-55
2022/09/20 12:18:07;;;;;;;4.53;2.35;;;;;;;22.21;46.77;101200.38;5057492;28;20400;-51
2022/09/20 12:26:37;;;;;;;3.40;1.63;;;;;;;21.73;48.22;101197.47;5045850;27;20422;-48
2022/09/20 12:32:01;;;;;;;2.63;1.27;;;;;;;21.53;48.38;101192.81;5012065;28;20404;-53
2022/09/20 12:34:35;;;;;;;3.38;1.60;;;;;;;21.42;48.75;101190.50;4981333;28;20048;-52
2022/09/20 12:39:48;;;;;;;3.95;3.10;;;;;;;21.27;48.69;101187.41;5039523;28;20408;-55
2022/09/20 12:42:27;;;;;;;3.40;2.63;;;;;;;21.21;49.32;101192.84;4996524;28;20054;-51
2022/09/20 12:45:00;;;;;;;4.25;3.42;;;;;;;21.21;48.61;101192.84;4990398;28;20081;-50
2022/09/20 12:47:31;;;;;;;3.55;3.25;;;;;;;21.17;48.90;101191.22;4979973;28;20129;-55
2022/09/20 12:53:06;;;;;;;5.93;3.30;;;;;;;21.14;49.47;101188.69;4980698;28;20134;-53
2022/09/20 12:55:42;;;;;;;3.90;1.10;;;;;;;21.08;48.97;101191.50;4983471;28;20708;-53
2022/09/20 13:11:23;;;;;;;2.58;2.38;;;;;;;20.78;49.05;101190.50;5056266;28;20399;-52
2022/09/20 13:13:57;;;;;;;2.63;2.30;;;;;;;20.76;48.68;101181.78;5024787;27;20160;-51
2022/09/20 13:25:01;;;;;;;2.90;2.38;;;;;;;20.59;48.78;101179.59;5044033;27;20388;-56
2022/09/20 13:27:33;;;;;;;3.13;2.70;;;;;;;20.58;48.62;101187.53;4996017;28;20054;-55
2022/09/20 13:32:45;;;;;;;2.67;0.98;;;;;;;20.58;48.52;101177.03;5021806;27;20406;-49
2022/09/20 13:35:17;;;;;;;2.13;1.02;;;;;;;20.57;48.35;101170.03;4999283;28;20149;-51
2022/09/20 13:43:02;;;;;;;4.20;1.35;;;;;;;20.72;46.87;101180.16;5031720;27;20418;-55
2022/09/20 13:45:55;;;;;;;3.05;1.77;;;;;;;20.69;47.06;101185.50;4982778;28;20588;-51
2022/09/20 13:48:26;;;;;;;3.58;1.85;;;;;;;20.68;47.28;101183.78;4982367;28;20114;-47
2022/09/20 13:50:53;;;;;;;2.45;1.55;;;;;;;20.65;47.38;101189.13;4987166;28;20047;-52
2022/09/20 13:53:23;;;;;;;2.15;1.02;;;;;;;20.60;47.21;101180.50;4986742;28;20181;-54
2022/09/20 13:58:52;;;;;;;2.33;1.10;;;;;;;20.60;47.36;101183.97;5011132;28;20414;-49
2022/09/20 14:01:26;;;;;;;1.73;0.98;;;;;;;20.63;47.36;101175.13;4997022;28;20068;-53
2022/09/20 14:03:54;;;;;;;2.22;1.40;;;;;;;20.65;47.52;101173.31;4997545;28;20050;-52
2022/09/20 14:06:27;;;;;;;2.28;1.20;;;;;;;20.67;47.68;101169.75;5001720;28;20058;-50
2022/09/20 14:08:54;;;;;;;2.70;0.80;;;;;;;20.69;48.24;101169.69;4996027;28;20081;-54
2022/09/20 14:11:24;;;;;;;2.28;0.98;;;;;;;20.71;47.64;101173.16;4994703;28;20042;-50
2022/09/20 14:13:53;;;;;;;3.45;1.73;;;;;;;20.71;48.16;101167.91;4994559;28;20080;-48
2022/09/20 14:16:23;;;;;;;3.22;1.30;;;;;;;20.71;47.75;101175.78;4999675;28;20137;-52
2022/09/20 14:18:51;;;;;;;2.13;0.88;;;;;;;20.69;47.67;101169.69;5000204;28;20134;-50
2022/09/20 14:21:23;;;;;;;2.75;1.10;;;;;;;20.70;47.81;101171.41;4995489;28;20137;-53
2022/09/20 14:26:32;;;;;;;2.78;1.05;;;;;;;20.70;48.51;101178.47;5022633;27;20417;-56
2022/09/20 14:29:28;;;;;;;2.55;1.13;;;;;;;20.64;47.64;101168.97;5014876;28;20140;-52
2022/09/20 14:31:56;;;;;;;2.05;1.23;;;;;;;20.63;47.13;101164.59;5012700;28;20058;-48
2022/09/20 14:34:23;;;;;;;2.92;1.35;;;;;;;20.62;47.31;101162.88;5006781;28;20080;-48
2022/09/20 14:36:50;;;;;;;3.15;1.00;;;;;;;20.59;47.68;101162.94;5011873;28;20073;-51
2022/09/20 14:39:18;;;;;;;2.67;1.40;;;;;;;20.58;47.00;101166.50;5018847;28;20129;-50
2022/09/20 14:41:45;;;;;;;1.90;1.00;;;;;;;20.53;47.47;101159.59;5011788;28;20557;-47
2022/09/20 14:44:32;;;;;;;4.45;1.52;;;;;;;20.46;47.39;101163.28;5006277;28;20077;-51
2022/09/20 14:47:11;;;;;;;2.60;1.45;;;;;;;20.47;47.87;101162.38;5009516;28;20161;-52
2022/09/20 14:49:42;;;;;;;2.40;1.38;;;;;;;20.42;47.71;101154.63;5014547;28;20081;-49
2022/09/20 14:57:38;;;;;;;3.42;1.55;;;;;;;20.40;47.63;101155.56;5069729;27;20410;-52
2022/09/20 15:00:14;;;;;;;2.35;1.10;;;;;;;20.38;47.75;101149.47;5023302;28;20049;-55
2022/09/20 15:02:42;;;;;;;;;;;;;;;20.27;48.26;101147.97;5024627;28;20077;-54
2022/09/20 15:05:19;;;;;;;20.77;9.43;;;;;;;20.39;47.68;101151.19;5025088;28;20362;-53
2022/09/20 15:07:46;;;;;;;11.45;4.82;;;;;;;20.44;47.75;101151.06;5016210;28;20099;-53
2022/09/20 15:10:14;;;;;;;6.00;2.28;;;;;;;20.48;47.64;101148.31;5023289;28;20052;-50
2022/09/20 15:12:41;;;;;;;3.33;1.35;;;;;;;20.56;47.83;101150.75;5003262;28;20148;-52
2022/09/20 15:15:16;;;;;;;2.13;1.17;;;;;;;20.61;47.58;101150.63;5023118;28;20045;-52
2022/09/20 15:17:44;;;;;;;2.50;1.00;;;;;;;20.62;47.61;101145.31;5018683;28;20132;-51
2022/09/20 15:20:15;;;;;;;3.28;0.95;;;;;;;20.66;47.61;101143.44;5021411;28;20049;-54
2022/09/20 15:22:49;;;;;;;6.82;1.73;;;;;;;20.69;47.61;101143.38;5021316;28;20057;-53
2022/09/20 15:25:18;;;;;;;5.25;1.70;;;;;;;20.73;47.09;101150.28;5018345;28;20152;-52
2022/09/20 15:27:45;;;;;;;3.15;1.35;;;;;;;20.72;47.48;101138.03;5026632;28;20069;-53
2022/09/20 15:30:15;;;;;;;3.50;1.15;;;;;;;20.74;47.41;101136.19;5005109;28;20157;-51
2022/09/20 15:32:43;;;;;;;2.72;1.00;;;;;;;20.77;47.43;101141.38;5006305;28;20133;-55
2022/09/20 15:35:10;;;;;;;2.00;0.80;;;;;;;20.78;47.95;101137.84;5021936;28;20072;-54
2022/09/20 15:37:37;;;;;;;3.17;1.00;;;;;;;20.83;48.00;101139.50;5023655;28;20148;-54
2022/09/20 15:40:05;;;;;;;4.15;1.30;;;;;;;20.86;47.61;101139.41;5020911;28;20128;-55
2022/09/20 15:42:36;;;;;;;2.55;1.20;;;;;;;20.84;47.50;101142.06;5023454;28;20148;-53
2022/09/20 15:45:07;;;;;;;2.90;1.08;;;;;;;20.85;46.92;101142.94;5023737;28;20100;-50
2022/09/20 15:47:36;;;;;;;2.88;1.25;;;;;;;20.84;47.17;101135.97;5046779;28;20152;-55
2022/09/20 15:50:06;;;;;;;2.67;0.90;;;;;;;20.80;46.42;101136.03;5057654;28;20550;-53
2022/09/20 15:52:35;;;;;;;2.58;1.00;;;;;;;20.79;46.21;101139.59;5061745;28;20127;-52
2022/09/20 15:55:03;;;;;;;2.47;0.90;;;;;;;20.76;46.45;101129.13;5064348;28;20106;-51
2022/09/20 15:57:30;;;;;;;1.48;0.63;;;;;;;20.78;46.79;101132.56;5046300;28;20152;-53
2022/09/20 15:59:58;;;;;;;3.42;0.73;;;;;;;20.83;46.95;101132.44;5063366;28;20053;-52
2022/09/20 16:02:25;;;;;;;2.55;0.90;;;;;;;20.89;47.58;101139.34;5063272;28;20051;-50
2022/09/20 16:04:54;;;;;;;2.10;0.95;;;;;;;20.93;47.84;101135.72;5042611;28;20106;-52
2022/09/20 16:07:24;;;;;;;2.58;1.13;;;;;;;20.98;47.46;101125.94;5058355;28;20255;-49
2022/09/20 16:09:53;;;;;;;2.83;0.80;;;;;;;21.01;47.45;101123.19;5010963;28;20055;-53
2022/09/20 16:12:21;;;;;;;1.33;0.73;;;;;;;21.05;47.58;101129.25;5043747;28;20041;-48
2022/09/20 16:14:48;;;;;;;2.38;1.27;;;;;;;21.06;46.92;101131.84;5046180;28;20052;-50
2022/09/20 16:17:16;;;;;;;2.92;1.10;;;;;;;21.10;47.47;101126.47;5044918;28;20053;-51
2022/09/20 16:19:45;;;;;;;2.25;1.10;;;;;;;21.09;46.63;101125.59;5041459;28;20107;-55
2022/09/20 16:22:11;;;;;;;5.00;1.10;;;;;;;21.07;46.92;101124.78;5045420;28;20163;-53
2022/09/20 16:24:38;;;;;;;1.52;0.80;;;;;;;21.06;47.14;101129.19;5044725;28;20057;-53
2022/09/20 16:27:07;;;;;;;2.50;1.25;;;;;;;21.06;47.25;101126.56;5045257;28;20064;-54
2022/09/20 16:29:33;;;;;;;2.40;1.10;;;;;;;21.03;46.47;101121.38;5044991;28;20129;-55
2022/09/20 16:32:02;;;;;;;3.17;1.10;;;;;;;20.98;46.12;101128.56;5047561;28;20133;-53
2022/09/20 16:34:31;;;;;;;3.28;0.75;;;;;;;20.92;45.94;101137.50;5044390;28;20132;-54
2022/09/20 16:37:00;;;;;;;5.30;1.70;;;;;;;20.86;46.01;101139.41;5046135;28;20118;-52
2022/09/20 16:39:29;;;;;;;2.30;1.30;;;;;;;20.77;46.24;101135.28;5004672;28;20137;-52
2022/09/20 16:42:02;;;;;;;2.78;1.15;;;;;;;20.72;46.44;101130.13;5022969;28;20088;-50
2022/09/20 16:44:30;;;;;;;1.92;1.05;;;;;;;20.68;46.56;101131.97;5024936;28;20818;-50
2022/09/20 16:46:57;;;;;;;2.65;0.93;;;;;;;20.66;46.51;101138.19;5018193;28;20077;-51
2022/09/20 16:49:27;;;;;;;1.50;0.80;;;;;;;20.63;46.50;101133.00;5040882;28;20128;-55
2022/09/20 16:51:54;;;;;;;9.32;1.65;;;;;;;20.61;46.83;101132.19;5024190;28;20068;-54
2022/09/20 16:54:21;;;;;;;2.70;0.70;;;;;;;20.57;46.74;101136.69;5041550;28;20071;-54
2022/09/20 16:56:50;;;;;;;1.70;0.75;;;;;;;20.55;47.06;101141.13;5044419;28;20041;-55
2022/09/20 16:59:20;;;;;;;4.13;0.98;;;;;;;20.50;47.43;101137.75;5026316;28;20136;-56
2022/09/20 17:01:47;;;;;;;2.08;0.57;;;;;;;20.45;47.55;101143.16;5042800;28;20760;-55
2022/09/20 17:04:17;;;;;;;2.85;0.85;;;;;;;20.42;47.17;101138.84;5023181;28;20128;-50
2022/09/20 17:06:44;;;;;;;3.50;1.10;;;;;;;20.38;46.97;101146.84;5026566;28;20060;-56
2022/09/20 17:09:12;;;;;;;2.50;0.73;;;;;;;20.35;47.83;101145.16;5044082;28;20104;-55
2022/09/20 17:11:44;;;;;;;1.98;1.02;;;;;;;20.33;47.33;101143.47;5026366;28;20159;-55
2022/09/20 17:14:12;;;;;;;3.30;1.35;;;;;;;20.25;47.33;101147.16;5023825;28;20132;-53
2022/09/20 17:16:41;;;;;;;2.63;1.13;;;;;;;20.19;47.07;101147.31;5027836;28;20037;-53
2022/09/20 17:19:11;;;;;;;4.53;2.20;;;;;;;20.14;47.17;101149.19;5023909;28;20052;-54
2022/09/20 17:21:42;;;;;;;4.25;1.73;;;;;;;20.08;47.02;101149.34;5024663;28;20634;-53